Borger, Texas
Current Conditions -  °F | °C
As of 12:51 AM on Wednesday 22 Oct 2014 (Local Time) from KBGD Reporting Station
Clear Clear  
Wind Chill: 60°   Ceiling: Unl
Heat Index: 60°   Visibility: 10mi
Dew Point: 48°   Wind: 9mph
Humidity: 64%   Direction: 250°WSW
Pressure: 30.07"   Gusts: NA
Location:  35.67°N, 101.39°W
Report Text: KBGD 220551Z AUTO 25008KT 10SM CLR 16/09 A3007 RMK AO2 SLP149 T01560089 10233 20156 402610122 51005
Loading
Personal Weather Stations






























Interactive Weather Map
Tropical Storm Tracking
New forecast layout! Learn more

10-Day Weather Forecast

Advertisements
Track Severe Weather on mobile